createdAt,value
2022-11-17T03:50:06.148Z,-0.49
2022-11-17T03:52:33.614Z,-0.06
2022-11-17T03:55:00.852Z,-0.01
2022-11-17T04:06:28.392Z,-0.23
2022-11-17T04:13:48.997Z,-0.39
2022-11-17T04:25:38.646Z,-0.42
2022-11-17T04:32:07.550Z,-0.80
2022-11-17T04:35:02.551Z,-0.29
2022-11-17T04:38:20.286Z,-0.32
2022-11-17T04:45:40.607Z,-0.77
2022-11-17T04:54:04.317Z,-0.05
2022-11-17T04:57:34.339Z,-0.42
2022-11-17T05:00:27.193Z,-0.85
2022-11-17T05:02:54.342Z,-0.36
2022-11-17T05:05:50.406Z,-0.17
2022-11-17T05:08:18.032Z,-0.27
2022-11-17T05:11:04.083Z,-0.49
2022-11-17T05:14:00.670Z,-0.71
2022-11-17T05:16:46.254Z,-0.63
2022-11-17T05:19:22.514Z,-0.36
2022-11-17T05:21:49.857Z,-0.35
2022-11-17T05:25:07.599Z,-0.52
2022-11-17T05:27:35.670Z,-0.74
2022-11-17T05:30:04.392Z,-0.87
2022-11-17T05:33:52.398Z,-0.55
2022-11-17T05:36:19.856Z,-0.19
2022-11-17T05:39:13.637Z,-0.53
2022-11-17T05:42:06.381Z,-0.79
2022-11-17T05:44:34.351Z,-0.84
2022-11-17T05:47:51.264Z,-0.69
2022-11-17T05:50:18.823Z,-0.64
2022-11-17T05:52:46.095Z,-0.49
2022-11-17T05:55:13.326Z,-0.67
2022-11-17T05:57:40.513Z,-0.85
2022-11-17T06:00:09.579Z,-0.91
2022-11-17T06:06:34.494Z,-0.30
2022-11-17T06:09:02.779Z,-0.33
2022-11-17T06:11:30.122Z,-0.64
2022-11-17T06:18:12.558Z,-0.63
2022-11-17T06:20:42.332Z,-0.70
2022-11-17T06:24:00.614Z,-0.93
2022-11-17T06:26:28.284Z,-1.12
2022-11-17T06:29:20.823Z,-1.37
2022-11-17T06:31:48.279Z,-0.81
2022-11-17T06:34:15.534Z,-0.32
2022-11-17T06:36:42.682Z,-0.36
2022-11-17T06:39:35.635Z,-0.61
2022-11-17T06:43:10.263Z,-0.74
2022-11-17T06:45:41.821Z,-1.10
2022-11-17T06:48:10.304Z,-0.62
2022-11-17T06:50:38.986Z,-0.45
2022-11-17T06:53:07.776Z,-0.81
2022-11-17T06:55:35.031Z,-0.83
2022-11-17T06:58:05.731Z,-1.07
2022-11-17T07:00:35.832Z,-0.95
2022-11-17T07:03:05.893Z,-0.60
2022-11-17T07:05:33.917Z,-0.26
2022-11-17T07:08:02.866Z,-0.23
2022-11-17T07:10:30.111Z,-0.36
2022-11-17T07:12:57.462Z,-0.41
2022-11-17T07:15:33.536Z,-0.53
2022-11-17T07:18:00.568Z,-0.72
2022-11-17T07:20:27.683Z,-0.11
2022-11-17T07:22:59.580Z,-0.20
2022-11-17T07:25:26.417Z,-0.07
2022-11-17T07:27:58.484Z,0.19
2022-11-17T07:30:25.327Z,-0.05
2022-11-17T07:32:54.879Z,-0.05
2022-11-17T07:35:22.311Z,-0.20
2022-11-17T07:37:49.924Z,-0.61
2022-11-17T07:40:17.038Z,-0.04
2022-11-17T07:42:49.080Z,0.18
2022-11-17T07:45:16.957Z,-0.06
2022-11-17T07:47:55.955Z,0.16
2022-11-17T07:50:24.646Z,-0.40
2022-11-17T07:52:53.939Z,-0.67
2022-11-17T07:55:21.050Z,-1.15
2022-11-17T07:57:54.279Z,-0.66
2022-11-17T08:00:21.526Z,-0.52
2022-11-17T08:02:48.360Z,-0.49
2022-11-17T08:05:22.525Z,-0.60
2022-11-17T08:07:56.814Z,-0.88
2022-11-17T08:10:26.620Z,-1.11
2022-11-17T08:12:53.974Z,-0.55
2022-11-17T08:15:21.842Z,0.01
2022-11-17T08:17:52.943Z,0.15
2022-11-17T08:21:37.646Z,-0.58
2022-11-17T08:24:05.412Z,-1.02
2022-11-17T08:26:32.663Z,-1.27
2022-11-17T08:29:01.554Z,-1.17
2022-11-17T08:31:28.934Z,-0.33
2022-11-17T08:33:56.465Z,-0.17
2022-11-17T08:36:23.349Z,-0.59
2022-11-17T08:38:50.766Z,-0.78
2022-11-17T08:41:19.349Z,-0.93
2022-11-17T08:43:46.600Z,-0.95
2022-11-17T08:46:13.649Z,-0.63
2022-11-17T08:48:40.952Z,-0.74
2022-11-17T08:51:08.350Z,-0.66
2022-11-17T08:53:44.405Z,-0.63
2022-11-17T08:56:11.945Z,-0.65
2022-11-17T08:58:41.077Z,-1.00
2022-11-17T09:01:09.702Z,-0.92
2022-11-17T09:03:36.467Z,-0.51
2022-11-17T09:06:06.815Z,-0.62
2022-11-17T09:08:50.188Z,-0.57
2022-11-17T09:11:17.718Z,-0.81
2022-11-17T09:21:26.299Z,-0.62
2022-11-17T09:23:54.771Z,-0.81
2022-11-17T09:26:27.752Z,-1.12
2022-11-17T09:28:54.889Z,-1.24
2022-11-17T09:31:40.731Z,-1.27
2022-11-17T09:34:08.261Z,-1.13
2022-11-17T09:36:35.271Z,-0.83
2022-11-17T09:39:02.218Z,-0.24
2022-11-17T09:41:45.849Z,-0.05
2022-11-17T09:44:31.341Z,-0.61
2022-11-17T09:47:13.741Z,-0.88
2022-11-17T09:50:22.472Z,-0.90
2022-11-17T09:53:04.158Z,-0.80
2022-11-17T09:55:34.358Z,-0.24
2022-11-17T09:58:34.917Z,-0.25
2022-11-17T10:01:02.058Z,-0.56
2022-11-17T10:03:34.778Z,-0.92
2022-11-17T10:06:05.930Z,-1.02
2022-11-17T10:08:59.037Z,-0.88
2022-11-17T10:11:31.718Z,-0.48
2022-11-17T10:14:04.335Z,0.10
2022-11-17T10:16:31.654Z,0.05
2022-11-17T10:18:58.695Z,-0.27
2022-11-17T10:21:29.840Z,-0.53
2022-11-17T10:23:58.560Z,-0.61
2022-11-17T10:26:26.086Z,-0.57
2022-11-17T10:29:08.776Z,-0.44
2022-11-17T10:31:40.766Z,-0.12
2022-11-17T10:34:10.263Z,-0.39
2022-11-17T10:36:37.343Z,-0.70
2022-11-17T10:39:04.374Z,-1.30
2022-11-17T10:41:41.344Z,-1.46
2022-11-17T10:44:28.353Z,-1.41
2022-11-17T10:47:04.321Z,-0.73
2022-11-17T10:49:34.229Z,-0.59
2022-11-17T10:52:15.788Z,-0.84
2022-11-17T10:54:42.977Z,-1.06
2022-11-17T10:57:23.626Z,-0.87
2022-11-17T10:59:56.684Z,-0.79
2022-11-17T11:02:37.402Z,-0.86
2022-11-17T11:05:10.712Z,-0.29
2022-11-17T11:07:38.183Z,-0.23
2022-11-17T11:10:17.600Z,-0.37
2022-11-17T11:12:56.931Z,-1.05
2022-11-17T11:15:24.547Z,-1.55
2022-11-17T11:17:51.783Z,-1.36
2022-11-17T11:20:21.518Z,-1.07
2022-11-17T11:23:06.934Z,-0.90
2022-11-17T11:25:41.253Z,-1.25
2022-11-17T11:28:11.755Z,-1.32
2022-11-17T11:30:43.088Z,-1.25
2022-11-17T11:33:23.842Z,-1.10
2022-11-17T11:36:11.469Z,-0.80
2022-11-17T11:38:56.855Z,-0.93
2022-11-17T11:41:42.283Z,-1.31
2022-11-17T11:44:21.508Z,-1.65
2022-11-17T11:47:07.700Z,-1.74
2022-11-17T11:49:41.912Z,-1.41
2022-11-17T11:52:20.643Z,-1.31
2022-11-17T11:54:54.602Z,-1.35
2022-11-17T11:57:25.988Z,-1.46
2022-11-17T12:00:02.435Z,-1.18
2022-11-17T12:02:51.760Z,-1.45
2022-11-17T12:05:37.191Z,-1.25
2022-11-17T12:08:32.031Z,-1.22
2022-11-17T12:11:22.898Z,-1.63
2022-11-17T12:13:53.793Z,-1.66
2022-11-17T12:16:34.834Z,-1.76
2022-11-17T12:19:02.269Z,-1.88
2022-11-17T12:21:29.251Z,-1.68
2022-11-17T12:24:11.948Z,-1.77
2022-11-17T12:26:39.323Z,-1.46
2022-11-17T12:29:21.895Z,-1.75
2022-11-17T12:31:56.204Z,-1.66
2022-11-17T12:34:23.128Z,-1.95
2022-11-17T12:37:15.319Z,-1.69
2022-11-17T12:39:51.455Z,-1.08
2022-11-17T12:42:18.453Z,-1.41
2022-11-17T12:45:18.026Z,-1.50
2022-11-17T12:47:59.406Z,-1.86
2022-11-17T12:51:10.380Z,-1.63
2022-11-17T12:54:16.228Z,-1.11
2022-11-17T12:56:58.723Z,-1.25
2022-11-17T12:59:47.714Z,-1.71
2022-11-17T13:02:23.972Z,-1.62
2022-11-17T13:05:11.166Z,-1.47
2022-11-17T13:07:38.325Z,-1.34
2022-11-17T13:10:06.039Z,-0.59
2022-11-17T13:12:33.763Z,-0.65
2022-11-17T13:15:02.918Z,-0.95
2022-11-17T13:17:40.300Z,-1.02
2022-11-17T13:20:34.638Z,-1.52
2022-11-17T13:23:09.435Z,-1.78
2022-11-17T13:25:36.351Z,-1.02
2022-11-17T13:28:05.368Z,-0.52
2022-11-17T13:30:32.936Z,-0.53
2022-11-17T13:33:01.654Z,-0.97
2022-11-17T13:35:31.128Z,-1.18
2022-11-17T13:38:04.369Z,-1.09
2022-11-17T13:40:31.624Z,-1.61
2022-11-17T13:42:58.615Z,-1.15
2022-11-17T13:45:25.532Z,-0.84
2022-11-17T13:47:53.865Z,-0.99
2022-11-17T13:50:20.808Z,-1.28
2022-11-17T13:52:47.680Z,-1.41
2022-11-17T13:55:17.926Z,-1.75
2022-11-17T13:57:54.005Z,-1.81
2022-11-17T14:00:21.724Z,-1.20
2022-11-17T14:02:56.669Z,-1.13
2022-11-17T14:05:27.973Z,-1.58
2022-11-17T14:07:57.025Z,-1.67
2022-11-17T14:10:31.710Z,-1.62
2022-11-17T14:13:01.793Z,-1.86
2022-11-17T14:15:30.587Z,-1.56
2022-11-17T14:17:59.010Z,-1.20
2022-11-17T14:20:26.103Z,-1.30
2022-11-17T14:23:11.490Z,-1.72
2022-11-17T14:25:40.579Z,-1.56
2022-11-17T14:28:18.222Z,-1.69
2022-11-17T14:30:51.652Z,-1.42
2022-11-17T14:33:18.613Z,-1.11
2022-11-17T14:35:46.170Z,-1.39
2022-11-17T14:38:14.598Z,-1.65
2022-11-17T14:40:41.597Z,-1.60
2022-11-17T14:43:08.582Z,-1.76
2022-11-17T14:45:35.688Z,-1.86
2022-11-17T14:48:04.176Z,-1.14
2022-11-17T14:50:31.120Z,-1.63
2022-11-17T14:52:58.162Z,-1.55
2022-11-17T14:55:25.582Z,-1.68
2022-11-17T14:57:52.550Z,-2.14
2022-11-17T15:00:20.886Z,-1.97
2022-11-17T15:02:48.005Z,-1.91
2022-11-17T15:05:14.928Z,-1.87
2022-11-17T15:07:42.695Z,-2.23
2022-11-17T15:10:10.070Z,-2.20
2022-11-17T15:12:36.978Z,-2.33
2022-11-17T15:15:05.215Z,-1.93
2022-11-17T15:17:32.111Z,-2.00
2022-11-17T15:19:59.090Z,-2.45
2022-11-17T15:22:25.999Z,-2.41
2022-11-17T15:24:53.307Z,-2.12
2022-11-17T15:27:20.727Z,-1.87
2022-11-17T15:29:47.759Z,-1.75
2022-11-17T15:32:14.904Z,-1.67
2022-11-17T15:34:41.762Z,-1.94
2022-11-17T15:37:08.802Z,-2.05
2022-11-17T15:39:36.150Z,-2.33
2022-11-17T15:42:03.011Z,-1.78
2022-11-17T15:44:29.899Z,-1.24
2022-11-17T15:46:56.882Z,-1.76
2022-11-17T15:49:23.966Z,-2.15
2022-11-17T15:51:50.895Z,-2.25
2022-11-17T15:54:20.645Z,-2.33
2022-11-17T15:56:48.153Z,-1.86
2022-11-17T15:59:15.304Z,-1.64
2022-11-17T16:01:42.620Z,-1.81
2022-11-17T16:04:11.435Z,-1.79
2022-11-17T16:06:39.927Z,-1.74
2022-11-17T16:09:07.006Z,-2.25
2022-11-17T16:11:34.149Z,-2.31
2022-11-17T16:14:01.402Z,-1.93
2022-11-17T16:16:30.463Z,-1.89
2022-11-17T16:18:57.716Z,-1.92
2022-11-17T16:21:24.597Z,-2.19
2022-11-17T16:23:56.074Z,-2.26
2022-11-17T16:26:24.585Z,-2.27
2022-11-17T16:29:02.403Z,-1.75
2022-11-17T16:31:30.815Z,-1.72
2022-11-17T16:38:59.727Z,-2.39
2022-11-17T16:41:30.645Z,-2.55
2022-11-17T16:43:57.603Z,-2.19
2022-11-17T16:46:26.641Z,-2.09
2022-11-17T16:48:53.593Z,-2.32
2022-11-17T16:51:20.680Z,-2.32
2022-11-17T16:53:49.236Z,-2.35
2022-11-17T16:56:16.495Z,-2.36
2022-11-17T16:58:43.440Z,-1.65
2022-11-17T17:01:15.496Z,-1.73
2022-11-17T17:03:42.694Z,-2.00
2022-11-17T17:06:11.367Z,-2.05
2022-11-17T17:08:38.584Z,-2.21
2022-11-17T17:11:10.346Z,-2.15
2022-11-17T17:13:37.533Z,-2.12
2022-11-17T17:16:05.980Z,-1.48
2022-11-17T17:18:33.032Z,-1.34
2022-11-17T17:21:00.065Z,-1.57
2022-11-17T17:23:27.076Z,-1.80
2022-11-17T17:26:03.298Z,-2.20
2022-11-17T17:28:34.931Z,-2.25
2022-11-17T17:31:02.153Z,-1.88
2022-11-17T17:33:32.855Z,-1.51
2022-11-17T17:36:18.527Z,-1.36
2022-11-17T17:38:48.944Z,-1.55
2022-11-17T17:41:20.680Z,-1.89
2022-11-17T17:43:47.682Z,-2.18
2022-11-17T17:46:16.079Z,-2.39
2022-11-17T17:48:46.622Z,-2.04
2022-11-17T17:51:18.019Z,-1.43
2022-11-17T17:53:45.051Z,-1.69
2022-11-17T17:56:13.910Z,-1.72
2022-11-17T17:58:41.423Z,-2.19
2022-11-17T18:01:14.423Z,-2.67
2022-11-17T18:03:45.899Z,-2.76
2022-11-17T18:06:13.266Z,-2.40
2022-11-17T18:08:40.220Z,-2.24
2022-11-17T18:11:08.565Z,-2.43
2022-11-17T18:13:37.198Z,-2.64
2022-11-17T18:16:09.257Z,-2.52
2022-11-17T18:18:36.311Z,-2.59
2022-11-17T18:21:10.916Z,-2.37
2022-11-17T18:23:38.463Z,-2.44
2022-11-17T18:26:10.699Z,-2.41
2022-11-17T18:28:40.757Z,-2.86
2022-11-17T18:31:08.246Z,-2.87
2022-11-17T18:33:35.748Z,-2.84
2022-11-17T18:36:07.463Z,-2.81
2022-11-17T18:38:35.619Z,-2.40
2022-11-17T18:41:07.062Z,-2.51
2022-11-17T18:43:34.209Z,-2.66
2022-11-17T18:46:05.345Z,-2.66
2022-11-17T18:48:34.023Z,-2.80
2022-11-17T18:51:19.080Z,-2.91
2022-11-17T18:54:01.106Z,-2.82
2022-11-17T18:56:31.929Z,-2.81
2022-11-17T18:58:59.498Z,-2.86
2022-11-17T19:01:30.512Z,-2.89
2022-11-17T19:04:00.957Z,-3.21
2022-11-17T19:06:28.208Z,-2.84
2022-11-17T19:08:55.254Z,-2.60
2022-11-17T19:11:22.733Z,-2.54
2022-11-17T19:13:50.064Z,-2.50
2022-11-17T19:16:21.908Z,-2.33
2022-11-17T19:18:50.620Z,-2.64
2022-11-17T19:21:36.810Z,-2.37
2022-11-17T19:24:04.466Z,-2.34
2022-11-17T19:26:33.148Z,-2.33
2022-11-17T19:29:15.520Z,-2.53
2022-11-17T19:31:44.275Z,-2.39
2022-11-17T19:34:11.598Z,-2.33
2022-11-17T19:36:38.645Z,-2.75
2022-11-17T19:39:05.591Z,-2.41
2022-11-17T19:41:36.960Z,-2.13
2022-11-17T19:44:05.519Z,-2.40
2022-11-17T19:46:32.611Z,-2.36
2022-11-17T19:48:59.634Z,-2.58
2022-11-17T19:51:29.498Z,-2.46
2022-11-17T19:53:59.074Z,-2.67
2022-11-17T19:56:26.074Z,-2.32
2022-11-17T19:58:53.984Z,-1.91
2022-11-17T20:01:22.945Z,-1.73
2022-11-17T20:03:50.291Z,-1.97
2022-11-17T20:06:18.727Z,-2.27
2022-11-17T20:08:46.332Z,-2.37
2022-11-17T20:11:21.510Z,-2.42
2022-11-17T20:13:48.830Z,-2.14
2022-11-17T20:16:17.674Z,-1.94
2022-11-17T20:18:45.396Z,-1.96
2022-11-17T20:21:14.058Z,-2.17
2022-11-17T20:23:41.174Z,-2.34
2022-11-17T20:26:11.352Z,-2.59
2022-11-17T20:28:38.371Z,-2.55
2022-11-17T20:31:10.102Z,-1.95
2022-11-17T20:33:41.086Z,-1.74
2022-11-17T20:36:09.321Z,-1.88
2022-11-17T20:38:36.253Z,-2.38
2022-11-17T20:41:03.340Z,-2.56
2022-11-17T20:43:30.670Z,-2.57
2022-11-17T20:45:57.982Z,-2.73
2022-11-17T20:48:25.091Z,-2.13
2022-11-17T20:50:59.277Z,-1.88
2022-11-17T20:53:26.776Z,-2.46
2022-11-17T20:55:57.619Z,-2.66
2022-11-17T20:58:25.466Z,-2.68
2022-11-17T21:00:52.546Z,-2.75
2022-11-17T21:03:19.865Z,-2.26
2022-11-17T21:06:00.516Z,-2.39
2022-11-17T21:08:30.735Z,-2.65
2022-11-17T21:10:59.027Z,-2.65
2022-11-17T21:13:26.179Z,-2.68
2022-11-17T21:16:09.918Z,-2.71
2022-11-17T21:18:37.933Z,-2.38
2022-11-17T21:21:09.205Z,-2.30
2022-11-17T21:23:37.439Z,-2.05
2022-11-17T21:26:05.910Z,-2.29
2022-11-17T21:28:33.752Z,-2.77
2022-11-17T21:31:08.383Z,-2.76
2022-11-17T21:33:36.293Z,-2.73
2022-11-17T21:36:04.637Z,-2.18
2022-11-17T21:38:31.637Z,-1.82
2022-11-17T21:41:09.886Z,-1.91
2022-11-17T21:43:37.747Z,-2.60
2022-11-17T21:46:06.901Z,-2.81
2022-11-17T21:48:35.117Z,-2.83
2022-11-17T21:51:02.380Z,-3.11
2022-11-17T21:53:30.334Z,-2.73
2022-11-17T21:56:01.808Z,-2.08
2022-11-17T21:58:28.735Z,-2.05
2022-11-17T22:00:55.903Z,-2.30
2022-11-17T22:03:24.158Z,-2.44
2022-11-17T22:05:59.446Z,-2.68
2022-11-17T22:08:29.155Z,-2.83
2022-11-17T22:10:55.984Z,-2.85
2022-11-17T22:13:22.898Z,-2.40
2022-11-17T22:15:49.840Z,-2.05
2022-11-17T22:18:16.886Z,-1.94
2022-11-17T22:20:43.872Z,-2.01
2022-11-17T22:23:10.738Z,-2.35
2022-11-17T22:25:45.280Z,-2.58
2022-11-17T22:28:12.793Z,-2.96
2022-11-17T22:30:39.694Z,-2.44
2022-11-17T22:33:06.621Z,-2.12
2022-11-17T22:35:33.526Z,-1.79
2022-11-17T22:38:00.530Z,-1.88
2022-11-17T22:40:27.816Z,-1.98
2022-11-17T22:42:54.723Z,-2.21
2022-11-17T22:45:21.553Z,-2.64
2022-11-17T22:47:48.417Z,-2.72
2022-11-17T22:50:15.958Z,-2.33
2022-11-17T22:52:42.773Z,-1.93
2022-11-17T22:55:09.656Z,-2.08
2022-11-17T22:57:36.638Z,-2.48
2022-11-17T23:00:05.080Z,-2.37
2022-11-17T23:02:32.024Z,-2.22
2022-11-17T23:05:50.683Z,-2.46
2022-11-17T23:08:17.625Z,-2.71
2022-11-17T23:10:44.490Z,-2.26
2022-11-17T23:13:11.518Z,-1.92
2022-11-17T23:15:39.450Z,-1.74
2022-11-17T23:18:06.423Z,-2.03
2022-11-17T23:20:33.373Z,-2.21
2022-11-17T23:23:00.319Z,-2.47
2022-11-17T23:25:27.161Z,-2.79
2022-11-17T23:27:54.032Z,-2.49
2022-11-17T23:30:21.053Z,-2.11
2022-11-17T23:32:47.935Z,-1.50
2022-11-17T23:35:14.936Z,-1.72
2022-11-17T23:37:41.920Z,-2.24
2022-11-17T23:40:09.893Z,-2.24
2022-11-17T23:42:42.686Z,-2.46
2022-11-17T23:45:12.148Z,-2.59
2022-11-17T23:47:39.521Z,-2.73
2022-11-17T23:50:07.137Z,-2.97
2022-11-17T23:52:34.040Z,-2.61
2022-11-17T23:55:01.038Z,-2.08
2022-11-17T23:57:27.843Z,-1.73
2022-11-17T23:59:54.748Z,-1.81
